sensor_id;sensor_type;location;lat;lon;timestamp;temperature;humidity
34829;DHT22;21042;47.620;12.188;2022-08-19T00:01:33;17.70;99.90
34829;DHT22;21042;47.620;12.188;2022-08-19T00:04:07;17.70;99.90
34829;DHT22;21042;47.620;12.188;2022-08-19T00:06:36;17.70;99.90
34829;DHT22;21042;47.620;12.188;2022-08-19T00:09:05;17.70;99.90
34829;DHT22;21042;47.620;12.188;2022-08-19T00:11:33;17.70;99.90
34829;DHT22;21042;47.620;12.188;2022-08-19T00:14:01;17.60;99.90
34829;DHT22;21042;47.620;12.188;2022-08-19T00:16:28;17.60;99.90
34829;DHT22;21042;47.620;12.188;2022-08-19T00:18:55;17.60;99.90
34829;DHT22;21042;47.620;12.188;2022-08-19T00:21:22;17.60;99.90
34829;DHT22;21042;47.620;12.188;2022-08-19T00:23:50;17.60;99.90
34829;DHT22;21042;47.620;12.188;2022-08-19T00:26:16;17.70;99.90
34829;DHT22;21042;47.620;12.188;2022-08-19T00:28:43;17.70;99.90
34829;DHT22;21042;47.620;12.188;2022-08-19T00:31:10;17.70;99.90
34829;DHT22;21042;47.620;12.188;2022-08-19T00:33:37;17.60;99.90
34829;DHT22;21042;47.620;12.188;2022-08-19T00:36:07;17.70;99.90
34829;DHT22;21042;47.620;12.188;2022-08-19T00:38:35;17.60;99.90
34829;DHT22;21042;47.620;12.188;2022-08-19T00:41:05;17.80;99.90
34829;DHT22;21042;47.620;12.188;2022-08-19T00:43:32;17.80;99.90
34829;DHT22;21042;47.620;12.188;2022-08-19T00:45:59;17.80;99.90
34829;DHT22;21042;47.620;12.188;2022-08-19T00:48:26;17.80;99.90
34829;DHT22;21042;47.620;12.188;2022-08-19T00:50:53;17.90;99.90
34829;DHT22;21042;47.620;12.188;2022-08-19T00:53:25;17.90;99.90
34829;DHT22;21042;47.620;12.188;2022-08-19T00:55:55;17.90;99.90
34829;DHT22;21042;47.620;12.188;2022-08-19T00:58:27;17.80;99.90
34829;DHT22;21042;47.620;12.188;2022-08-19T01:00:55;17.90;99.90
34829;DHT22;21042;47.620;12.188;2022-08-19T01:03:23;17.80;99.90
34829;DHT22;21042;47.620;12.188;2022-08-19T01:05:50;17.80;99.90
34829;DHT22;21042;47.620;12.188;2022-08-19T01:08:19;17.80;99.90
34829;DHT22;21042;47.620;12.188;2022-08-19T01:10:54;17.80;99.90
34829;DHT22;21042;47.620;12.188;2022-08-19T01:13:32;17.80;99.90
34829;DHT22;21042;47.620;12.188;2022-08-19T01:16:17;17.80;99.90
34829;DHT22;21042;47.620;12.188;2022-08-19T01:18:45;17.80;99.90
34829;DHT22;21042;47.620;12.188;2022-08-19T01:21:31;17.80;99.90
34829;DHT22;21042;47.620;12.188;2022-08-19T01:23:58;17.90;99.90
34829;DHT22;21042;47.620;12.188;2022-08-19T01:26:27;17.80;99.90
34829;DHT22;21042;47.620;12.188;2022-08-19T01:28:58;17.90;99.90
34829;DHT22;21042;47.620;12.188;2022-08-19T01:31:28;17.90;99.90
34829;DHT22;21042;47.620;12.188;2022-08-19T01:33:59;17.90;99.90
34829;DHT22;21042;47.620;12.188;2022-08-19T01:36:33;17.90;99.90
34829;DHT22;21042;47.620;12.188;2022-08-19T01:39:02;18.00;99.90
34829;DHT22;21042;47.620;12.188;2022-08-19T01:41:29;18.00;99.90
34829;DHT22;21042;47.620;12.188;2022-08-19T01:43:56;18.10;99.90
34829;DHT22;21042;47.620;12.188;2022-08-19T01:46:43;18.10;99.90
34829;DHT22;21042;47.620;12.188;2022-08-19T01:49:10;18.10;99.90
34829;DHT22;21042;47.620;12.188;2022-08-19T01:51:38;18.20;99.90
34829;DHT22;21042;47.620;12.188;2022-08-19T01:54:07;18.20;99.90
34829;DHT22;21042;47.620;12.188;2022-08-19T01:56:35;18.20;99.90
34829;DHT22;21042;47.620;12.188;2022-08-19T01:59:04;18.20;99.90
34829;DHT22;21042;47.620;12.188;2022-08-19T02:01:33;18.20;99.90
34829;DHT22;21042;47.620;12.188;2022-08-19T02:04:01;18.30;99.90
34829;DHT22;21042;47.620;12.188;2022-08-19T02:06:29;18.30;99.90
34829;DHT22;21042;47.620;12.188;2022-08-19T02:08:56;18.30;99.90
34829;DHT22;21042;47.620;12.188;2022-08-19T02:11:24;18.30;99.90
34829;DHT22;21042;47.620;12.188;2022-08-19T02:13:54;18.40;99.90
34829;DHT22;21042;47.620;12.188;2022-08-19T02:16:21;18.30;99.90
34829;DHT22;21042;47.620;12.188;2022-08-19T02:18:48;18.20;99.90
34829;DHT22;21042;47.620;12.188;2022-08-19T02:21:16;18.20;99.90
34829;DHT22;21042;47.620;12.188;2022-08-19T02:23:43;18.20;99.90
34829;DHT22;21042;47.620;12.188;2022-08-19T02:26:11;18.20;99.90
34829;DHT22;21042;47.620;12.188;2022-08-19T02:28:39;18.20;99.90
34829;DHT22;21042;47.620;12.188;2022-08-19T02:31:13;18.10;99.90
34829;DHT22;21042;47.620;12.188;2022-08-19T02:33:41;18.10;99.90
34829;DHT22;21042;47.620;12.188;2022-08-19T02:36:09;18.10;99.90
34829;DHT22;21042;47.620;12.188;2022-08-19T02:38:36;18.00;99.90
34829;DHT22;21042;47.620;12.188;2022-08-19T02:41:28;18.00;99.90
34829;DHT22;21042;47.620;12.188;2022-08-19T02:43:55;18.00;99.90
34829;DHT22;21042;47.620;12.188;2022-08-19T02:46:45;18.00;99.90
34829;DHT22;21042;47.620;12.188;2022-08-19T02:49:13;18.00;99.90
34829;DHT22;21042;47.620;12.188;2022-08-19T02:51:44;18.00;99.90
34829;DHT22;21042;47.620;12.188;2022-08-19T02:54:13;17.90;99.90
34829;DHT22;21042;47.620;12.188;2022-08-19T02:56:42;17.90;99.90
34829;DHT22;21042;47.620;12.188;2022-08-19T02:59:09;17.90;99.90
34829;DHT22;21042;47.620;12.188;2022-08-19T03:01:38;17.80;99.90
34829;DHT22;21042;47.620;12.188;2022-08-19T03:04:07;17.80;99.90
34829;DHT22;21042;47.620;12.188;2022-08-19T03:06:37;17.80;99.90
34829;DHT22;21042;47.620;12.188;2022-08-19T03:09:03;17.70;99.90
34829;DHT22;21042;47.620;12.188;2022-08-19T03:11:31;17.80;99.90
34829;DHT22;21042;47.620;12.188;2022-08-19T03:13:59;17.70;99.90
34829;DHT22;21042;47.620;12.188;2022-08-19T03:16:29;17.80;99.90
34829;DHT22;21042;47.620;12.188;2022-08-19T03:19:00;17.80;99.90
34829;DHT22;21042;47.620;12.188;2022-08-19T03:21:29;17.80;99.90
34829;DHT22;21042;47.620;12.188;2022-08-19T03:23:58;17.80;99.90
34829;DHT22;21042;47.620;12.188;2022-08-19T03:26:25;17.80;99.90
34829;DHT22;21042;47.620;12.188;2022-08-19T03:28:52;17.90;99.90
34829;DHT22;21042;47.620;12.188;2022-08-19T03:31:26;17.80;99.90
34829;DHT22;21042;47.620;12.188;2022-08-19T03:34:17;17.80;99.90
34829;DHT22;21042;47.620;12.188;2022-08-19T03:36:45;17.70;99.90
34829;DHT22;21042;47.620;12.188;2022-08-19T03:39:13;17.70;99.90
34829;DHT22;21042;47.620;12.188;2022-08-19T03:41:43;17.70;99.90
34829;DHT22;21042;47.620;12.188;2022-08-19T03:44:15;17.70;99.90
34829;DHT22;21042;47.620;12.188;2022-08-19T03:46:46;17.60;99.90
34829;DHT22;21042;47.620;12.188;2022-08-19T03:49:13;17.60;99.90
34829;DHT22;21042;47.620;12.188;2022-08-19T03:51:41;17.60;99.90
34829;DHT22;21042;47.620;12.188;2022-08-19T03:54:12;17.60;99.90
34829;DHT22;21042;47.620;12.188;2022-08-19T03:56:41;17.50;99.90
34829;DHT22;21042;47.620;12.188;2022-08-19T03:59:11;17.60;99.90
34829;DHT22;21042;47.620;12.188;2022-08-19T04:01:39;17.60;99.90
34829;DHT22;21042;47.620;12.188;2022-08-19T04:04:07;17.60;99.90
34829;DHT22;21042;47.620;12.188;2022-08-19T04:06:36;17.60;99.90
34829;DHT22;21042;47.620;12.188;2022-08-19T04:09:09;17.60;99.90
34829;DHT22;21042;47.620;12.188;2022-08-19T04:11:49;17.60;99.90
34829;DHT22;21042;47.620;12.188;2022-08-19T04:14:18;17.60;99.90
34829;DHT22;21042;47.620;12.188;2022-08-19T04:16:47;17.50;99.90
34829;DHT22;21042;47.620;12.188;2022-08-19T04:19:15;17.60;99.90
34829;DHT22;21042;47.620;12.188;2022-08-19T04:21:47;17.50;99.90
34829;DHT22;21042;47.620;12.188;2022-08-19T04:24:14;17.50;99.90
34829;DHT22;21042;47.620;12.188;2022-08-19T04:26:41;17.50;99.90
34829;DHT22;21042;47.620;12.188;2022-08-19T04:29:18;17.50;99.90
34829;DHT22;21042;47.620;12.188;2022-08-19T04:31:48;17.50;99.90
34829;DHT22;21042;47.620;12.188;2022-08-19T04:34:17;17.40;99.90
34829;DHT22;21042;47.620;12.188;2022-08-19T04:36:45;17.50;99.90
34829;DHT22;21042;47.620;12.188;2022-08-19T04:39:16;17.60;99.90
34829;DHT22;21042;47.620;12.188;2022-08-19T04:41:43;17.50;99.90
34829;DHT22;21042;47.620;12.188;2022-08-19T04:44:36;17.60;99.90
34829;DHT22;21042;47.620;12.188;2022-08-19T04:47:12;17.60;99.90
34829;DHT22;21042;47.620;12.188;2022-08-19T04:49:38;17.70;99.90
34829;DHT22;21042;47.620;12.188;2022-08-19T04:52:05;17.70;99.90
34829;DHT22;21042;47.620;12.188;2022-08-19T04:54:32;17.60;99.90
34829;DHT22;21042;47.620;12.188;2022-08-19T04:57:08;17.70;99.90
34829;DHT22;21042;47.620;12.188;2022-08-19T04:59:37;17.70;99.90
34829;DHT22;21042;47.620;12.188;2022-08-19T05:02:04;17.70;99.90
34829;DHT22;21042;47.620;12.188;2022-08-19T05:04:32;17.70;99.90
34829;DHT22;21042;47.620;12.188;2022-08-19T05:07:00;17.70;99.90
34829;DHT22;21042;47.620;12.188;2022-08-19T05:09:29;17.70;99.90
34829;DHT22;21042;47.620;12.188;2022-08-19T05:12:16;17.70;99.90
34829;DHT22;21042;47.620;12.188;2022-08-19T05:14:44;17.70;99.90
34829;DHT22;21042;47.620;12.188;2022-08-19T05:17:11;17.70;99.90
34829;DHT22;21042;47.620;12.188;2022-08-19T05:19:53;17.70;99.90
34829;DHT22;21042;47.620;12.188;2022-08-19T05:22:40;17.70;99.90
34829;DHT22;21042;47.620;12.188;2022-08-19T05:25:15;17.60;99.90
34829;DHT22;21042;47.620;12.188;2022-08-19T05:27:45;17.60;99.90
34829;DHT22;21042;47.620;12.188;2022-08-19T05:30:12;17.60;99.90
34829;DHT22;21042;47.620;12.188;2022-08-19T05:32:39;17.60;99.90
34829;DHT22;21042;47.620;12.188;2022-08-19T05:35:07;17.60;99.90
34829;DHT22;21042;47.620;12.188;2022-08-19T05:37:34;17.60;99.90
34829;DHT22;21042;47.620;12.188;2022-08-19T05:40:00;17.60;99.90
34829;DHT22;21042;47.620;12.188;2022-08-19T05:42:27;17.60;99.90
34829;DHT22;21042;47.620;12.188;2022-08-19T05:44:54;17.60;99.90
34829;DHT22;21042;47.620;12.188;2022-08-19T05:47:22;17.60;99.90
34829;DHT22;21042;47.620;12.188;2022-08-19T05:49:49;17.50;99.90
34829;DHT22;21042;47.620;12.188;2022-08-19T05:52:18;17.60;99.90
34829;DHT22;21042;47.620;12.188;2022-08-19T05:54:52;17.60;99.90
34829;DHT22;21042;47.620;12.188;2022-08-19T05:57:21;17.60;99.90
34829;DHT22;21042;47.620;12.188;2022-08-19T05:59:48;17.60;99.90
34829;DHT22;21042;47.620;12.188;2022-08-19T06:02:30;17.60;99.90
34829;DHT22;21042;47.620;12.188;2022-08-19T06:04:57;17.60;99.90
34829;DHT22;21042;47.620;12.188;2022-08-19T06:07:24;17.60;99.90
34829;DHT22;21042;47.620;12.188;2022-08-19T06:09:51;17.60;99.90
34829;DHT22;21042;47.620;12.188;2022-08-19T06:12:31;17.60;99.90
34829;DHT22;21042;47.620;12.188;2022-08-19T06:15:08;17.70;99.90
34829;DHT22;21042;47.620;12.188;2022-08-19T06:17:35;17.60;99.90
34829;DHT22;21042;47.620;12.188;2022-08-19T06:20:05;17.50;99.90
34829;DHT22;21042;47.620;12.188;2022-08-19T06:22:44;17.50;99.90
34829;DHT22;21042;47.620;12.188;2022-08-19T06:25:13;17.50;99.90
34829;DHT22;21042;47.620;12.188;2022-08-19T06:27:41;17.60;99.90
34829;DHT22;21042;47.620;12.188;2022-08-19T06:30:28;17.60;99.90
34829;DHT22;21042;47.620;12.188;2022-08-19T06:32:54;17.70;99.90
34829;DHT22;21042;47.620;12.188;2022-08-19T06:35:21;17.70;99.90
34829;DHT22;21042;47.620;12.188;2022-08-19T06:37:48;17.80;99.90
34829;DHT22;21042;47.620;12.188;2022-08-19T06:40:15;17.90;99.90
34829;DHT22;21042;47.620;12.188;2022-08-19T06:42:41;17.80;99.90
34829;DHT22;21042;47.620;12.188;2022-08-19T06:45:21;17.80;99.90
34829;DHT22;21042;47.620;12.188;2022-08-19T06:51:37;17.90;99.90
34829;DHT22;21042;47.620;12.188;2022-08-19T06:54:10;18.00;99.90
34829;DHT22;21042;47.620;12.188;2022-08-19T06:56:45;17.90;99.90
34829;DHT22;21042;47.620;12.188;2022-08-19T06:59:15;17.70;99.90
34829;DHT22;21042;47.620;12.188;2022-08-19T07:01:48;17.80;99.90
34829;DHT22;21042;47.620;12.188;2022-08-19T07:04:20;17.60;99.90
34829;DHT22;21042;47.620;12.188;2022-08-19T07:06:49;17.50;99.90
34829;DHT22;21042;47.620;12.188;2022-08-19T07:09:21;17.40;99.90
34829;DHT22;21042;47.620;12.188;2022-08-19T07:11:50;17.40;99.90
34829;DHT22;21042;47.620;12.188;2022-08-19T07:14:20;17.40;99.90
34829;DHT22;21042;47.620;12.188;2022-08-19T07:16:49;17.40;99.90
34829;DHT22;21042;47.620;12.188;2022-08-19T07:19:18;17.50;99.90
34829;DHT22;21042;47.620;12.188;2022-08-19T07:21:48;17.50;99.90
34829;DHT22;21042;47.620;12.188;2022-08-19T07:24:16;17.60;99.90
34829;DHT22;21042;47.620;12.188;2022-08-19T07:26:44;17.60;99.90
34829;DHT22;21042;47.620;12.188;2022-08-19T07:29:12;17.70;99.90
34829;DHT22;21042;47.620;12.188;2022-08-19T07:31:39;17.70;99.90
34829;DHT22;21042;47.620;12.188;2022-08-19T07:34:10;17.90;99.90
34829;DHT22;21042;47.620;12.188;2022-08-19T07:36:41;17.90;99.90
34829;DHT22;21042;47.620;12.188;2022-08-19T07:39:15;18.10;99.90
34829;DHT22;21042;47.620;12.188;2022-08-19T07:41:43;18.30;99.90
34829;DHT22;21042;47.620;12.188;2022-08-19T07:44:10;18.40;99.90
34829;DHT22;21042;47.620;12.188;2022-08-19T07:46:40;18.60;99.90
34829;DHT22;21042;47.620;12.188;2022-08-19T07:49:08;18.60;99.90
34829;DHT22;21042;47.620;12.188;2022-08-19T07:51:39;18.60;99.90
34829;DHT22;21042;47.620;12.188;2022-08-19T07:54:06;18.60;99.90
34829;DHT22;21042;47.620;12.188;2022-08-19T07:56:33;18.60;99.90
34829;DHT22;21042;47.620;12.188;2022-08-19T07:59:00;18.60;99.90
34829;DHT22;21042;47.620;12.188;2022-08-19T08:01:27;18.60;99.90
34829;DHT22;21042;47.620;12.188;2022-08-19T08:03:56;18.50;99.90
34829;DHT22;21042;47.620;12.188;2022-08-19T08:06:42;18.50;99.90
34829;DHT22;21042;47.620;12.188;2022-08-19T08:09:31;18.60;99.90
34829;DHT22;21042;47.620;12.188;2022-08-19T08:14:55;18.90;99.90
34829;DHT22;21042;47.620;12.188;2022-08-19T08:17:25;19.20;99.90
34829;DHT22;21042;47.620;12.188;2022-08-19T08:20:13;19.30;99.90
34829;DHT22;21042;47.620;12.188;2022-08-19T08:22:44;19.30;99.90
34829;DHT22;21042;47.620;12.188;2022-08-19T08:25:30;19.20;99.90
34829;DHT22;21042;47.620;12.188;2022-08-19T08:27:58;19.10;99.90
34829;DHT22;21042;47.620;12.188;2022-08-19T08:30:28;19.10;99.90
34829;DHT22;21042;47.620;12.188;2022-08-19T08:32:58;19.20;99.90
34829;DHT22;21042;47.620;12.188;2022-08-19T08:35:28;19.50;99.90
34829;DHT22;21042;47.620;12.188;2022-08-19T08:37:55;19.60;99.90
34829;DHT22;21042;47.620;12.188;2022-08-19T08:43:02;19.50;99.90
34829;DHT22;21042;47.620;12.188;2022-08-19T08:45:41;19.70;99.90
34829;DHT22;21042;47.620;12.188;2022-08-19T08:48:32;19.70;99.90
34829;DHT22;21042;47.620;12.188;2022-08-19T08:51:05;19.90;99.90
34829;DHT22;21042;47.620;12.188;2022-08-19T08:53:35;20.00;99.90
34829;DHT22;21042;47.620;12.188;2022-08-19T08:56:08;20.20;99.90
34829;DHT22;21042;47.620;12.188;2022-08-19T08:58:42;20.50;99.90
34829;DHT22;21042;47.620;12.188;2022-08-19T09:01:12;20.70;99.90
34829;DHT22;21042;47.620;12.188;2022-08-19T09:03:41;20.90;99.90
34829;DHT22;21042;47.620;12.188;2022-08-19T09:06:19;20.80;99.90
34829;DHT22;21042;47.620;12.188;2022-08-19T09:09:03;21.00;99.90
34829;DHT22;21042;47.620;12.188;2022-08-19T09:11:47;21.00;99.90
34829;DHT22;21042;47.620;12.188;2022-08-19T09:17:24;21.90;99.90
34829;DHT22;21042;47.620;12.188;2022-08-19T09:20:21;22.60;99.90
34829;DHT22;21042;47.620;12.188;2022-08-19T09:22:47;22.60;99.90
34829;DHT22;21042;47.620;12.188;2022-08-19T09:25:19;22.80;99.90
34829;DHT22;21042;47.620;12.188;2022-08-19T09:27:55;23.00;99.90
34829;DHT22;21042;47.620;12.188;2022-08-19T09:30:32;23.30;99.90
34829;DHT22;21042;47.620;12.188;2022-08-19T09:32:59;23.50;99.90
34829;DHT22;21042;47.620;12.188;2022-08-19T09:35:29;23.40;99.90
34829;DHT22;21042;47.620;12.188;2022-08-19T09:37:58;23.50;99.90
34829;DHT22;21042;47.620;12.188;2022-08-19T09:40:29;23.40;99.90
34829;DHT22;21042;47.620;12.188;2022-08-19T09:43:03;23.20;99.90
34829;DHT22;21042;47.620;12.188;2022-08-19T09:45:38;23.10;99.90
34829;DHT22;21042;47.620;12.188;2022-08-19T09:48:05;23.00;99.90
34829;DHT22;21042;47.620;12.188;2022-08-19T09:50:32;22.90;99.90
34829;DHT22;21042;47.620;12.188;2022-08-19T09:53:01;22.80;99.90
34829;DHT22;21042;47.620;12.188;2022-08-19T09:55:28;22.60;99.90
34829;DHT22;21042;47.620;12.188;2022-08-19T09:58:02;22.50;99.90
34829;DHT22;21042;47.620;12.188;2022-08-19T10:00:29;22.60;99.90
34829;DHT22;21042;47.620;12.188;2022-08-19T10:02:57;22.60;99.90
34829;DHT22;21042;47.620;12.188;2022-08-19T10:05:24;22.70;99.90
34829;DHT22;21042;47.620;12.188;2022-08-19T10:08:10;22.90;99.90
34829;DHT22;21042;47.620;12.188;2022-08-19T10:10:43;23.00;99.90
34829;DHT22;21042;47.620;12.188;2022-08-19T10:13:14;23.10;99.90
34829;DHT22;21042;47.620;12.188;2022-08-19T10:15:42;23.00;99.90
34829;DHT22;21042;47.620;12.188;2022-08-19T10:18:15;23.00;99.90
34829;DHT22;21042;47.620;12.188;2022-08-19T10:20:45;23.00;99.90
34829;DHT22;21042;47.620;12.188;2022-08-19T10:23:19;23.00;99.90
34829;DHT22;21042;47.620;12.188;2022-08-19T10:25:47;22.80;99.90
34829;DHT22;21042;47.620;12.188;2022-08-19T10:28:14;22.70;99.90
34829;DHT22;21042;47.620;12.188;2022-08-19T10:30:44;22.60;99.90
34829;DHT22;21042;47.620;12.188;2022-08-19T10:33:11;22.90;99.90
34829;DHT22;21042;47.620;12.188;2022-08-19T10:35:38;23.20;99.90
34829;DHT22;21042;47.620;12.188;2022-08-19T10:38:23;23.30;99.90
34829;DHT22;21042;47.620;12.188;2022-08-19T10:40:58;23.20;99.90
34829;DHT22;21042;47.620;12.188;2022-08-19T10:43:24;23.20;99.90
34829;DHT22;21042;47.620;12.188;2022-08-19T10:45:53;23.20;99.90
34829;DHT22;21042;47.620;12.188;2022-08-19T10:48:22;23.20;99.90
34829;DHT22;21042;47.620;12.188;2022-08-19T10:50:49;23.20;99.90
34829;DHT22;21042;47.620;12.188;2022-08-19T10:53:35;23.20;99.90
34829;DHT22;21042;47.620;12.188;2022-08-19T10:56:02;23.30;99.90
34829;DHT22;21042;47.620;12.188;2022-08-19T10:58:47;23.30;99.90
34829;DHT22;21042;47.620;12.188;2022-08-19T11:01:15;23.40;99.90
34829;DHT22;21042;47.620;12.188;2022-08-19T11:03:42;23.60;99.90
34829;DHT22;21042;47.620;12.188;2022-08-19T11:06:08;23.60;99.90
34829;DHT22;21042;47.620;12.188;2022-08-19T11:08:36;23.70;99.90
34829;DHT22;21042;47.620;12.188;2022-08-19T11:11:05;23.70;99.90
34829;DHT22;21042;47.620;12.188;2022-08-19T11:13:35;23.70;99.90
34829;DHT22;21042;47.620;12.188;2022-08-19T11:16:15;23.70;99.90
34829;DHT22;21042;47.620;12.188;2022-08-19T11:18:44;23.50;99.90
34829;DHT22;21042;47.620;12.188;2022-08-19T11:23:44;23.60;99.90
34829;DHT22;21042;47.620;12.188;2022-08-19T11:26:12;23.50;99.90
34829;DHT22;21042;47.620;12.188;2022-08-19T11:28:38;23.70;99.90
34829;DHT22;21042;47.620;12.188;2022-08-19T11:31:16;23.80;99.90
34829;DHT22;21042;47.620;12.188;2022-08-19T11:33:44;23.90;99.90
34829;DHT22;21042;47.620;12.188;2022-08-19T11:36:13;24.00;99.90
34829;DHT22;21042;47.620;12.188;2022-08-19T11:38:40;24.00;99.90
34829;DHT22;21042;47.620;12.188;2022-08-19T11:41:07;24.00;99.90
34829;DHT22;21042;47.620;12.188;2022-08-19T11:43:35;24.10;99.90
34829;DHT22;21042;47.620;12.188;2022-08-19T11:46:05;24.30;99.90
34829;DHT22;21042;47.620;12.188;2022-08-19T11:48:33;24.30;99.90
34829;DHT22;21042;47.620;12.188;2022-08-19T11:51:04;24.30;99.90
34829;DHT22;21042;47.620;12.188;2022-08-19T11:53:33;24.30;99.90
34829;DHT22;21042;47.620;12.188;2022-08-19T11:56:01;24.30;99.90
34829;DHT22;21042;47.620;12.188;2022-08-19T11:58:28;24.30;99.90
34829;DHT22;21042;47.620;12.188;2022-08-19T12:00:55;24.20;99.90
34829;DHT22;21042;47.620;12.188;2022-08-19T12:03:23;24.10;99.90
34829;DHT22;21042;47.620;12.188;2022-08-19T12:05:50;24.10;99.90
34829;DHT22;21042;47.620;12.188;2022-08-19T12:08:18;24.20;99.90
34829;DHT22;21042;47.620;12.188;2022-08-19T12:10:45;24.40;99.90
34829;DHT22;21042;47.620;12.188;2022-08-19T12:13:13;24.60;99.90
34829;DHT22;21042;47.620;12.188;2022-08-19T12:15:46;24.60;99.90
34829;DHT22;21042;47.620;12.188;2022-08-19T12:18:14;24.70;99.90
34829;DHT22;21042;47.620;12.188;2022-08-19T12:20:42;24.60;99.90
34829;DHT22;21042;47.620;12.188;2022-08-19T12:23:10;24.30;99.90
34829;DHT22;21042;47.620;12.188;2022-08-19T12:25:37;24.30;99.90
34829;DHT22;21042;47.620;12.188;2022-08-19T12:28:09;24.40;99.90
34829;DHT22;21042;47.620;12.188;2022-08-19T12:30:37;24.40;99.90
34829;DHT22;21042;47.620;12.188;2022-08-19T12:33:04;24.60;99.90
34829;DHT22;21042;47.620;12.188;2022-08-19T12:35:31;24.70;99.90
34829;DHT22;21042;47.620;12.188;2022-08-19T12:37:58;24.70;99.90
34829;DHT22;21042;47.620;12.188;2022-08-19T12:40:25;24.60;99.90
34829;DHT22;21042;47.620;12.188;2022-08-19T12:42:53;24.40;99.90
34829;DHT22;21042;47.620;12.188;2022-08-19T12:45:20;24.20;99.90
34829;DHT22;21042;47.620;12.188;2022-08-19T12:47:48;24.30;99.90
34829;DHT22;21042;47.620;12.188;2022-08-19T12:50:15;24.30;99.90
34829;DHT22;21042;47.620;12.188;2022-08-19T12:52:42;24.30;99.90
34829;DHT22;21042;47.620;12.188;2022-08-19T12:55:09;24.20;99.90
34829;DHT22;21042;47.620;12.188;2022-08-19T12:57:38;24.20;99.90
34829;DHT22;21042;47.620;12.188;2022-08-19T13:00:08;24.10;99.90
34829;DHT22;21042;47.620;12.188;2022-08-19T13:02:41;24.00;99.90
34829;DHT22;21042;47.620;12.188;2022-08-19T13:05:13;23.90;99.90
34829;DHT22;21042;47.620;12.188;2022-08-19T13:07:41;23.70;99.90
34829;DHT22;21042;47.620;12.188;2022-08-19T13:10:11;23.60;99.90
34829;DHT22;21042;47.620;12.188;2022-08-19T13:12:39;23.50;99.90
34829;DHT22;21042;47.620;12.188;2022-08-19T13:15:08;23.40;99.90
34829;DHT22;21042;47.620;12.188;2022-08-19T13:17:37;23.20;99.90
34829;DHT22;21042;47.620;12.188;2022-08-19T13:20:05;23.20;99.90
34829;DHT22;21042;47.620;12.188;2022-08-19T13:22:34;23.10;99.90
34829;DHT22;21042;47.620;12.188;2022-08-19T13:25:04;23.00;99.90
34829;DHT22;21042;47.620;12.188;2022-08-19T13:27:32;22.80;99.90
34829;DHT22;21042;47.620;12.188;2022-08-19T13:29:59;22.80;99.90
34829;DHT22;21042;47.620;12.188;2022-08-19T13:32:44;22.60;99.90
34829;DHT22;21042;47.620;12.188;2022-08-19T13:35:30;22.50;99.90
34829;DHT22;21042;47.620;12.188;2022-08-19T13:37:57;22.50;99.90
34829;DHT22;21042;47.620;12.188;2022-08-19T13:40:25;22.60;99.90
34829;DHT22;21042;47.620;12.188;2022-08-19T13:42:54;22.60;99.90
34829;DHT22;21042;47.620;12.188;2022-08-19T13:45:23;22.70;99.90
34829;DHT22;21042;47.620;12.188;2022-08-19T13:47:53;22.70;99.90
34829;DHT22;21042;47.620;12.188;2022-08-19T13:50:30;22.60;99.90
34829;DHT22;21042;47.620;12.188;2022-08-19T13:53:00;22.60;99.90
34829;DHT22;21042;47.620;12.188;2022-08-19T13:55:27;22.50;99.90
34829;DHT22;21042;47.620;12.188;2022-08-19T13:57:56;22.40;99.90
34829;DHT22;21042;47.620;12.188;2022-08-19T14:00:25;22.30;99.90
34829;DHT22;21042;47.620;12.188;2022-08-19T14:02:55;22.30;99.90
34829;DHT22;21042;47.620;12.188;2022-08-19T14:05:23;22.30;99.90
34829;DHT22;21042;47.620;12.188;2022-08-19T14:07:50;22.20;99.90
34829;DHT22;21042;47.620;12.188;2022-08-19T14:10:17;22.30;99.90
34829;DHT22;21042;47.620;12.188;2022-08-19T14:12:44;22.30;99.90
34829;DHT22;21042;47.620;12.188;2022-08-19T14:15:12;22.20;99.90
34829;DHT22;21042;47.620;12.188;2022-08-19T14:17:41;22.20;99.90
34829;DHT22;21042;47.620;12.188;2022-08-19T14:20:09;22.10;99.90
34829;DHT22;21042;47.620;12.188;2022-08-19T14:22:45;22.00;99.90
34829;DHT22;21042;47.620;12.188;2022-08-19T14:25:24;21.90;99.90
34829;DHT22;21042;47.620;12.188;2022-08-19T14:27:52;21.80;99.90
34829;DHT22;21042;47.620;12.188;2022-08-19T14:30:23;21.80;99.90
34829;DHT22;21042;47.620;12.188;2022-08-19T14:32:52;21.80;99.90
34829;DHT22;21042;47.620;12.188;2022-08-19T14:35:18;21.70;99.90
34829;DHT22;21042;47.620;12.188;2022-08-19T14:37:45;21.70;99.90
34829;DHT22;21042;47.620;12.188;2022-08-19T14:40:14;21.70;99.90
34829;DHT22;21042;47.620;12.188;2022-08-19T14:42:42;21.60;99.90
34829;DHT22;21042;47.620;12.188;2022-08-19T14:45:10;21.50;99.90
34829;DHT22;21042;47.620;12.188;2022-08-19T14:47:37;21.50;99.90
34829;DHT22;21042;47.620;12.188;2022-08-19T14:50:10;21.40;99.90
34829;DHT22;21042;47.620;12.188;2022-08-19T14:52:45;21.40;99.90
34829;DHT22;21042;47.620;12.188;2022-08-19T14:55:14;21.40;99.90
34829;DHT22;21042;47.620;12.188;2022-08-19T14:57:42;21.40;99.90
34829;DHT22;21042;47.620;12.188;2022-08-19T15:00:10;21.30;99.90
34829;DHT22;21042;47.620;12.188;2022-08-19T15:02:41;21.10;99.90
34829;DHT22;21042;47.620;12.188;2022-08-19T15:05:08;20.90;99.90
34829;DHT22;21042;47.620;12.188;2022-08-19T15:07:36;20.80;99.90
34829;DHT22;21042;47.620;12.188;2022-08-19T15:10:05;20.50;99.90
34829;DHT22;21042;47.620;12.188;2022-08-19T15:12:38;19.70;99.90
34829;DHT22;21042;47.620;12.188;2022-08-19T15:15:13;19.10;99.90
34829;DHT22;21042;47.620;12.188;2022-08-19T15:17:41;18.50;99.90
34829;DHT22;21042;47.620;12.188;2022-08-19T15:20:18;18.30;99.90
34829;DHT22;21042;47.620;12.188;2022-08-19T15:22:45;18.10;99.90
34829;DHT22;21042;47.620;12.188;2022-08-19T15:25:15;17.90;99.90
34829;DHT22;21042;47.620;12.188;2022-08-19T15:27:42;17.80;99.90
34829;DHT22;21042;47.620;12.188;2022-08-19T15:30:10;17.70;99.90
34829;DHT22;21042;47.620;12.188;2022-08-19T15:32:37;17.60;99.90
34829;DHT22;21042;47.620;12.188;2022-08-19T15:35:06;17.60;99.90
34829;DHT22;21042;47.620;12.188;2022-08-19T15:37:33;17.50;99.90
34829;DHT22;21042;47.620;12.188;2022-08-19T15:40:05;17.40;99.90
34829;DHT22;21042;47.620;12.188;2022-08-19T15:42:32;17.40;99.90
34829;DHT22;21042;47.620;12.188;2022-08-19T15:44:59;17.30;99.90
34829;DHT22;21042;47.620;12.188;2022-08-19T15:47:30;17.20;99.90
34829;DHT22;21042;47.620;12.188;2022-08-19T15:50:08;17.30;99.90